createdAt,value
2022-09-11T00:01:50.411Z,1.98
2022-09-11T00:04:16.982Z,2.75
2022-09-11T00:06:43.829Z,2.47
2022-09-11T00:09:10.397Z,2.97
2022-09-11T00:11:42.119Z,3.78
2022-09-11T00:14:11.465Z,2.70
2022-09-11T00:16:41.306Z,2.47
2022-09-11T00:19:13.528Z,2.72
2022-09-11T00:21:39.960Z,3.78
2022-09-11T00:24:09.953Z,2.90
2022-09-11T00:26:37.337Z,4.93
2022-09-11T00:29:05.038Z,3.67
2022-09-11T00:31:32.323Z,3.00
2022-09-11T00:33:58.971Z,3.15
2022-09-11T00:36:35.690Z,3.25
2022-09-11T00:39:02.398Z,4.03
2022-09-11T00:41:36.917Z,7.07
2022-09-11T00:44:08.437Z,3.33
2022-09-11T00:46:37.900Z,3.70
2022-09-11T00:49:16.800Z,6.57
2022-09-11T00:51:45.885Z,3.45
2022-09-11T00:54:14.749Z,3.95
2022-09-11T00:56:43.267Z,8.57
2022-09-11T00:59:11.470Z,4.20
2022-09-11T01:01:37.975Z,5.10
2022-09-11T01:04:06.472Z,7.10
2022-09-11T01:06:33.528Z,5.82
2022-09-11T01:09:00.112Z,4.32
2022-09-11T01:11:40.038Z,4.50
2022-09-11T01:14:25.278Z,4.18
2022-09-11T01:17:21.768Z,4.53
2022-09-11T01:20:25.410Z,4.43
2022-09-11T01:23:10.404Z,5.32
2022-09-11T01:26:20.104Z,5.20
2022-09-11T01:28:58.415Z,4.63
2022-09-11T01:31:36.178Z,5.35
2022-09-11T01:34:27.085Z,3.78
2022-09-11T01:37:00.075Z,4.30
2022-09-11T01:39:36.205Z,3.55
2022-09-11T01:42:07.063Z,4.13
2022-09-11T01:44:41.636Z,4.45
2022-09-11T01:47:11.822Z,5.25
2022-09-11T01:49:50.201Z,8.00
2022-09-11T01:52:23.709Z,5.50
2022-09-11T01:54:59.722Z,4.70
2022-09-11T01:57:39.828Z,4.45
2022-09-11T02:00:11.260Z,5.63
2022-09-11T02:02:59.032Z,5.50
2022-09-11T02:05:47.586Z,5.82
2022-09-11T02:08:27.508Z,6.88
2022-09-11T02:11:03.475Z,5.35
2022-09-11T02:13:35.979Z,6.78
2022-09-11T02:16:17.815Z,8.52
2022-09-11T02:18:59.673Z,8.27
2022-09-11T02:21:26.574Z,9.35
2022-09-11T02:23:55.408Z,13.38
2022-09-11T02:26:24.628Z,17.35
2022-09-11T02:28:53.122Z,10.73
2022-09-11T02:31:20.681Z,13.82
2022-09-11T02:33:47.969Z,15.60
2022-09-11T02:36:32.636Z,34.38
2022-09-11T02:39:21.262Z,15.27
2022-09-11T02:42:09.993Z,22.15
2022-09-11T02:44:45.593Z,17.13
2022-09-11T02:47:15.205Z,22.77
2022-09-11T02:50:06.376Z,17.33
2022-09-11T02:52:55.364Z,12.95
2022-09-11T02:55:56.704Z,15.52
2022-09-11T02:58:27.939Z,15.93
2022-09-11T03:01:02.374Z,13.52
2022-09-11T03:03:41.763Z,11.82
2022-09-11T03:06:11.927Z,21.35
2022-09-11T03:08:40.996Z,13.20
2022-09-11T03:11:09.519Z,12.68
2022-09-11T03:13:38.110Z,11.20
2022-09-11T03:16:05.625Z,14.90
2022-09-11T03:18:33.137Z,15.35
2022-09-11T03:21:01.157Z,12.70
2022-09-11T03:23:28.194Z,18.27
2022-09-11T03:25:55.585Z,16.92
2022-09-11T03:28:23.334Z,9.82
2022-09-11T03:30:50.525Z,14.18
2022-09-11T03:33:17.187Z,15.10
2022-09-11T03:35:44.681Z,14.93
2022-09-11T03:38:11.954Z,11.32
2022-09-11T03:40:42.280Z,10.80
2022-09-11T03:43:09.420Z,11.55
2022-09-11T03:45:35.985Z,11.75
2022-09-11T03:48:02.661Z,12.73
2022-09-11T03:50:29.271Z,14.45
2022-09-11T03:52:55.774Z,14.07
2022-09-11T03:55:23.847Z,12.70
2022-09-11T03:57:50.563Z,12.43
2022-09-11T04:00:18.110Z,12.50
2022-09-11T04:02:47.121Z,24.30
2022-09-11T04:05:25.956Z,15.15
2022-09-11T04:07:53.932Z,14.82
2022-09-11T04:10:21.251Z,17.00
2022-09-11T04:12:48.467Z,14.82
2022-09-11T04:15:15.287Z,21.83
2022-09-11T04:17:41.775Z,14.02
2022-09-11T04:20:10.229Z,15.88
2022-09-11T04:22:36.835Z,18.58
2022-09-11T04:25:03.952Z,16.48
2022-09-11T04:27:30.924Z,16.30
2022-09-11T04:29:57.942Z,15.82
2022-09-11T04:32:24.598Z,13.55
2022-09-11T04:34:51.096Z,18.27
2022-09-11T04:37:19.778Z,20.42
2022-09-11T04:39:47.260Z,16.50
2022-09-11T04:42:15.137Z,18.02
2022-09-11T04:44:43.658Z,17.38
2022-09-11T04:47:10.143Z,23.15
2022-09-11T04:49:36.665Z,19.02
2022-09-11T04:52:06.023Z,19.65
2022-09-11T04:54:36.952Z,22.17
2022-09-11T04:57:06.723Z,21.35
2022-09-11T04:59:34.565Z,21.02
2022-09-11T05:02:05.330Z,21.30
2022-09-11T05:04:34.472Z,24.20
2022-09-11T05:07:01.865Z,20.13
2022-09-11T05:09:28.807Z,22.52
2022-09-11T05:11:57.353Z,23.88
2022-09-11T05:14:28.301Z,26.27
2022-09-11T05:16:55.644Z,28.15
2022-09-11T05:19:25.632Z,31.17
2022-09-11T05:21:52.224Z,25.92
2022-09-11T05:24:18.707Z,21.33
2022-09-11T05:26:45.304Z,27.83
2022-09-11T05:29:15.024Z,23.52
2022-09-11T05:31:47.788Z,25.58
2022-09-11T05:34:17.179Z,26.13
2022-09-11T05:36:45.405Z,24.88
2022-09-11T05:39:11.880Z,24.85
2022-09-11T05:41:39.395Z,24.60
2022-09-11T05:44:06.784Z,24.00
2022-09-11T05:46:35.353Z,28.65
2022-09-11T05:49:03.385Z,25.80
2022-09-11T05:51:29.904Z,25.42
2022-09-11T05:53:58.635Z,25.48
2022-09-11T05:56:26.463Z,22.13
2022-09-11T05:58:58.634Z,22.40
2022-09-11T06:01:32.343Z,21.60
2022-09-11T06:04:12.181Z,21.65
2022-09-11T06:06:40.893Z,18.58
2022-09-11T06:09:07.640Z,19.85
2022-09-11T06:11:34.718Z,23.00
2022-09-11T06:14:02.425Z,17.35
2022-09-11T06:16:31.515Z,21.05
2022-09-11T06:19:04.836Z,27.05
2022-09-11T06:21:31.452Z,20.83
2022-09-11T06:24:18.756Z,23.85
2022-09-11T06:26:46.595Z,24.35
2022-09-11T06:29:16.792Z,22.10
2022-09-11T06:31:51.143Z,19.25
2022-09-11T06:34:20.986Z,17.20
2022-09-11T06:36:51.888Z,17.98
2022-09-11T06:39:23.148Z,18.25
2022-09-11T06:41:50.733Z,24.17
2022-09-11T06:44:19.912Z,20.27
2022-09-11T06:46:47.379Z,21.33
2022-09-11T06:49:14.436Z,22.05
2022-09-11T06:52:03.423Z,22.17
2022-09-11T06:54:30.796Z,22.13
2022-09-11T06:56:58.455Z,20.77
2022-09-11T06:59:25.696Z,29.90
2022-09-11T07:01:52.316Z,23.13
2022-09-11T07:04:20.061Z,26.98
2022-09-11T07:06:49.992Z,21.92
2022-09-11T07:09:16.717Z,23.45
2022-09-11T07:11:49.069Z,25.08
2022-09-11T07:14:21.224Z,23.67
2022-09-11T07:16:54.984Z,25.92
2022-09-11T07:19:24.964Z,24.70
2022-09-11T07:21:51.868Z,27.80
2022-09-11T07:24:19.119Z,25.30
2022-09-11T07:26:45.708Z,31.25
2022-09-11T07:29:22.212Z,26.83
2022-09-11T07:31:48.996Z,28.98
2022-09-11T07:34:16.143Z,29.73
2022-09-11T07:36:43.767Z,27.40
2022-09-11T07:39:10.613Z,28.70
2022-09-11T07:41:47.133Z,30.13
2022-09-11T07:44:19.605Z,31.10
2022-09-11T07:46:46.665Z,36.67
2022-09-11T07:49:14.428Z,33.25
2022-09-11T07:51:42.484Z,25.45
2022-09-11T07:54:11.440Z,29.98
2022-09-11T07:56:41.240Z,26.90
2022-09-11T07:59:10.121Z,28.98
2022-09-11T08:01:42.584Z,24.58
2022-09-11T08:04:14.309Z,26.95
2022-09-11T08:06:41.069Z,30.45
2022-09-11T08:09:15.633Z,28.33
2022-09-11T08:11:48.831Z,26.17
2022-09-11T08:14:17.783Z,26.13
2022-09-11T08:16:47.126Z,28.35
2022-09-11T08:19:18.546Z,27.35
2022-09-11T08:21:48.584Z,30.50
2022-09-11T08:24:20.285Z,25.00
2022-09-11T08:26:49.273Z,25.60
2022-09-11T08:29:18.240Z,26.38
2022-09-11T08:31:45.313Z,29.15
2022-09-11T08:34:12.584Z,28.15
2022-09-11T08:36:39.449Z,23.30
2022-09-11T08:39:08.942Z,22.88
2022-09-11T08:41:48.201Z,28.63
2022-09-11T08:44:22.052Z,28.08
2022-09-11T08:46:59.460Z,28.48
2022-09-11T08:49:34.877Z,25.65
2022-09-11T08:52:05.638Z,24.80
2022-09-11T08:54:39.925Z,26.33
2022-09-11T08:57:31.204Z,23.95
2022-09-11T09:00:10.749Z,25.52
2022-09-11T09:03:03.184Z,24.50
2022-09-11T09:05:53.501Z,27.70
2022-09-11T09:08:35.337Z,24.58
2022-09-11T09:11:22.088Z,22.50
2022-09-11T09:14:21.429Z,24.88
2022-09-11T09:16:57.979Z,21.55
2022-09-11T09:19:35.082Z,22.98
2022-09-11T09:22:21.799Z,20.55
2022-09-11T09:24:53.944Z,22.33
2022-09-11T09:27:31.552Z,22.77
2022-09-11T09:30:02.266Z,22.13
2022-09-11T09:32:33.898Z,17.08
2022-09-11T09:35:05.099Z,20.58
2022-09-11T09:37:31.877Z,16.85
2022-09-11T09:40:02.893Z,17.48
2022-09-11T09:42:42.519Z,17.13
2022-09-11T09:45:37.539Z,19.75
2022-09-11T09:48:06.577Z,18.67
2022-09-11T09:50:38.957Z,15.93
2022-09-11T09:53:27.548Z,15.82
2022-09-11T09:55:56.606Z,17.02
2022-09-11T09:58:27.115Z,15.25
2022-09-11T10:00:53.808Z,13.25
2022-09-11T10:03:24.829Z,14.35
2022-09-11T10:05:56.825Z,15.75
2022-09-11T10:08:35.590Z,13.50
2022-09-11T10:11:07.566Z,14.48
2022-09-11T10:13:38.034Z,14.43
2022-09-11T10:16:19.476Z,13.57
2022-09-11T10:18:47.126Z,13.68
2022-09-11T10:21:14.013Z,10.80
2022-09-11T10:24:03.849Z,9.98
2022-09-11T10:26:35.040Z,10.48
2022-09-11T10:29:07.684Z,10.20
2022-09-11T10:31:38.825Z,8.63
2022-09-11T10:34:06.094Z,8.43
2022-09-11T10:36:35.054Z,11.75
2022-09-11T10:39:02.614Z,9.95
2022-09-11T10:41:34.130Z,7.93
2022-09-11T10:44:04.122Z,12.75
2022-09-11T10:46:39.164Z,7.35
2022-09-11T10:49:05.914Z,8.40
2022-09-11T10:51:45.411Z,7.47
2022-09-11T10:54:16.699Z,8.02
2022-09-11T10:57:00.208Z,10.68
2022-09-11T10:59:40.862Z,10.07
2022-09-11T11:02:30.470Z,6.47
2022-09-11T11:05:03.242Z,11.60
2022-09-11T11:08:02.640Z,8.38
2022-09-11T11:10:35.149Z,9.45
2022-09-11T11:13:27.893Z,7.30
2022-09-11T11:16:10.719Z,8.73
2022-09-11T11:18:47.549Z,7.70
2022-09-11T11:21:27.958Z,10.40
2022-09-11T11:24:46.490Z,7.53
2022-09-11T11:28:00.869Z,7.63
2022-09-11T11:30:44.908Z,6.70
2022-09-11T11:33:44.086Z,7.45
2022-09-11T11:36:15.469Z,8.27
2022-09-11T11:39:00.334Z,6.43
2022-09-11T11:41:33.055Z,6.30
2022-09-11T11:44:02.879Z,7.93
2022-09-11T11:46:40.174Z,5.80
2022-09-11T11:49:23.957Z,4.78
2022-09-11T11:52:24.581Z,5.28
2022-09-11T11:55:02.585Z,5.38
2022-09-11T11:57:41.656Z,6.68
2022-09-11T12:00:14.633Z,8.50
2022-09-11T12:02:53.802Z,5.18
2022-09-11T12:05:24.331Z,12.65
2022-09-11T12:07:51.700Z,6.03
2022-09-11T12:10:22.720Z,7.13
2022-09-11T12:12:55.373Z,6.13
2022-09-11T12:15:24.699Z,5.07
2022-09-11T12:18:04.146Z,10.00
2022-09-11T12:20:45.291Z,5.75
2022-09-11T12:23:32.571Z,6.93
2022-09-11T12:26:05.107Z,6.32
2022-09-11T12:28:31.907Z,5.57
2022-09-11T12:31:07.398Z,4.40
2022-09-11T12:33:50.415Z,5.82
2022-09-11T12:36:19.520Z,4.50
2022-09-11T12:38:50.618Z,5.07
2022-09-11T12:41:27.307Z,6.05
2022-09-11T12:43:54.776Z,7.50
2022-09-11T12:46:21.608Z,5.78
2022-09-11T12:49:05.913Z,6.68
2022-09-11T12:51:42.290Z,8.13
2022-09-11T12:54:23.474Z,4.90
2022-09-11T12:57:12.923Z,5.22
2022-09-11T12:59:42.999Z,4.47
2022-09-11T13:02:33.555Z,4.47
2022-09-11T13:05:01.711Z,4.80
2022-09-11T13:07:39.831Z,4.25
2022-09-11T13:10:09.569Z,5.43
2022-09-11T13:12:49.973Z,5.38
2022-09-11T13:15:38.098Z,5.55
2022-09-11T13:18:25.572Z,9.23
2022-09-11T13:21:13.304Z,5.78
2022-09-11T13:23:42.997Z,7.40
2022-09-11T13:26:16.741Z,4.95
2022-09-11T13:28:46.836Z,5.00
2022-09-11T13:31:20.095Z,7.93
2022-09-11T13:33:50.093Z,4.68
2022-09-11T13:36:21.181Z,4.25
2022-09-11T13:38:54.399Z,4.93
2022-09-11T13:41:29.010Z,4.50
2022-09-11T13:44:11.501Z,5.32
2022-09-11T13:46:50.353Z,4.82
2022-09-11T13:49:36.000Z,4.15
2022-09-11T13:52:06.264Z,4.53
2022-09-11T13:54:51.576Z,5.15
2022-09-11T13:57:28.121Z,5.97
2022-09-11T14:00:00.687Z,4.85
2022-09-11T14:02:44.134Z,4.82
2022-09-11T14:05:21.899Z,3.55
2022-09-11T14:07:55.955Z,4.47
2022-09-11T14:10:30.267Z,5.45
2022-09-11T14:13:04.167Z,6.90
2022-09-11T14:15:59.560Z,6.45
2022-09-11T14:18:34.182Z,6.20
2022-09-11T14:21:05.100Z,6.32
2022-09-11T14:23:31.817Z,5.50
2022-09-11T14:26:09.367Z,7.95
2022-09-11T14:28:48.642Z,5.95
2022-09-11T14:31:29.409Z,3.95
2022-09-11T14:34:16.301Z,10.65
2022-09-11T14:36:46.811Z,4.15
2022-09-11T14:39:25.897Z,4.38
2022-09-11T14:41:55.167Z,4.93
2022-09-11T14:44:23.871Z,6.18
2022-09-11T14:46:50.336Z,2.67
2022-09-11T14:49:16.875Z,5.10
2022-09-11T14:51:43.898Z,3.88
2022-09-11T14:54:15.157Z,4.00
2022-09-11T14:56:42.537Z,6.50
2022-09-11T14:59:09.028Z,3.05
2022-09-11T15:01:36.524Z,3.13
2022-09-11T15:04:03.356Z,1.98
2022-09-11T15:06:30.384Z,2.60
2022-09-11T15:08:57.247Z,2.63
2022-09-11T15:11:23.705Z,4.00
2022-09-11T15:14:13.486Z,3.22
2022-09-11T15:16:36.627Z,5.05
2022-09-11T15:19:03.514Z,2.60
2022-09-11T15:21:33.006Z,2.72
2022-09-11T15:24:04.979Z,4.82
2022-09-11T15:26:37.279Z,2.70
2022-09-11T15:29:09.834Z,2.28
2022-09-11T15:31:37.644Z,3.03
2022-09-11T15:34:06.261Z,1.70
2022-09-11T15:36:38.125Z,2.03
2022-09-11T15:39:06.054Z,1.30
2022-09-11T15:41:33.667Z,1.60
2022-09-11T15:44:00.171Z,1.52
2022-09-11T15:46:26.673Z,1.15
2022-09-11T15:48:53.169Z,1.70
2022-09-11T15:51:21.936Z,2.00
2022-09-11T15:53:48.413Z,2.05
2022-09-11T15:56:22.717Z,2.15
2022-09-11T15:58:52.675Z,1.45
2022-09-11T16:01:21.617Z,1.42
2022-09-11T16:03:53.208Z,1.48
2022-09-11T16:06:20.978Z,1.58
2022-09-11T16:08:47.949Z,2.00
2022-09-11T16:11:17.218Z,2.03
2022-09-11T16:13:47.835Z,1.80
2022-09-11T16:16:14.393Z,1.20
2022-09-11T16:18:42.520Z,1.10
2022-09-11T16:21:11.434Z,1.67
2022-09-11T16:23:39.159Z,1.02
2022-09-11T16:26:08.302Z,1.40
2022-09-11T16:28:36.344Z,1.48
2022-09-11T16:31:03.882Z,1.08
2022-09-11T16:33:31.010Z,0.63
2022-09-11T16:36:06.854Z,2.03
2022-09-11T16:38:35.451Z,1.30
2022-09-11T16:41:15.722Z,1.05
2022-09-11T16:43:45.093Z,2.15
2022-09-11T16:46:17.198Z,1.00
2022-09-11T16:48:44.858Z,1.13
2022-09-11T16:51:14.373Z,0.93
2022-09-11T16:53:41.694Z,2.25
2022-09-11T16:56:10.826Z,1.42
2022-09-11T16:58:38.004Z,1.70
2022-09-11T17:01:10.201Z,1.38
2022-09-11T17:03:41.346Z,1.15
2022-09-11T17:06:09.196Z,1.55
2022-09-11T17:08:38.015Z,1.40
2022-09-11T17:11:06.042Z,1.25
2022-09-11T17:13:32.808Z,1.35
2022-09-11T17:16:07.107Z,1.27
2022-09-11T17:18:34.169Z,1.70
2022-09-11T17:21:06.233Z,1.55
2022-09-11T17:23:34.625Z,1.33
2022-09-11T17:26:09.139Z,1.60
2022-09-11T17:28:37.105Z,1.30
2022-09-11T17:31:06.914Z,1.58
2022-09-11T17:33:35.512Z,1.25
2022-09-11T17:36:05.868Z,1.95
2022-09-11T17:38:32.839Z,1.13
2022-09-11T17:41:02.655Z,1.80
2022-09-11T17:43:29.403Z,1.17
2022-09-11T17:46:24.082Z,1.48
2022-09-11T17:48:50.683Z,1.55
2022-09-11T17:51:26.144Z,1.50
2022-09-11T17:53:56.403Z,2.00
2022-09-11T17:56:25.894Z,1.27
2022-09-11T17:58:54.753Z,2.33
2022-09-11T18:01:22.000Z,1.30
2022-09-11T18:03:53.916Z,1.30
2022-09-11T18:06:25.376Z,1.38
2022-09-11T18:08:53.211Z,2.25
2022-09-11T18:11:19.748Z,1.50
2022-09-11T18:13:46.225Z,1.55
2022-09-11T18:16:12.860Z,1.30
2022-09-11T18:18:39.577Z,2.05
2022-09-11T18:21:08.872Z,1.92
2022-09-11T18:23:39.880Z,5.93
2022-09-11T18:26:07.272Z,1.27
2022-09-11T18:28:34.462Z,1.55
2022-09-11T18:31:02.935Z,1.70
2022-09-11T18:33:30.271Z,1.10
2022-09-11T18:36:02.214Z,2.22
2022-09-11T18:38:32.914Z,2.03
2022-09-11T18:41:00.707Z,8.20
2022-09-11T18:43:28.577Z,1.73
2022-09-11T18:45:55.632Z,1.35
2022-09-11T18:48:22.585Z,1.90
2022-09-11T18:50:49.186Z,1.77
2022-09-11T18:53:17.365Z,1.98
2022-09-11T18:55:43.820Z,2.30
2022-09-11T18:58:10.576Z,1.50
2022-09-11T19:00:38.545Z,1.63
2022-09-11T19:03:05.225Z,1.70
2022-09-11T19:05:31.735Z,1.33
2022-09-11T19:08:00.221Z,3.03
2022-09-11T19:10:26.897Z,1.83
2022-09-11T19:12:54.159Z,1.50
2022-09-11T19:15:20.684Z,1.58
2022-09-11T19:17:49.299Z,1.77
2022-09-11T19:20:16.152Z,2.22
2022-09-11T19:22:42.677Z,1.50
2022-09-11T19:25:09.999Z,2.38
2022-09-11T19:27:39.726Z,5.05
2022-09-11T19:30:06.771Z,2.38
2022-09-11T19:32:33.817Z,3.08
2022-09-11T19:35:00.575Z,1.67
2022-09-11T19:37:28.412Z,1.90
2022-09-11T19:39:57.083Z,1.83
2022-09-11T19:42:23.852Z,1.85
2022-09-11T19:44:53.130Z,2.78
2022-09-11T19:47:24.848Z,1.77
2022-09-11T19:49:53.052Z,2.08
2022-09-11T19:52:19.573Z,1.88
2022-09-11T19:54:46.167Z,2.53
2022-09-11T19:57:12.713Z,1.92
2022-09-11T19:59:39.219Z,1.80
2022-09-11T20:02:05.845Z,2.92
2022-09-11T20:04:32.717Z,1.70
2022-09-11T20:07:00.398Z,2.17
2022-09-11T20:09:31.267Z,1.92
2022-09-11T20:12:00.492Z,3.17
2022-09-11T20:14:29.764Z,3.33
2022-09-11T20:16:56.452Z,5.18
2022-09-11T20:19:22.993Z,2.83
2022-09-11T20:21:49.738Z,5.25
2022-09-11T20:24:16.181Z,3.42
2022-09-11T20:26:42.996Z,4.70
2022-09-11T20:29:13.736Z,2.67
2022-09-11T20:31:47.893Z,2.63
2022-09-11T20:34:18.979Z,3.33
2022-09-11T20:36:45.861Z,2.38
2022-09-11T20:39:16.217Z,6.13
2022-09-11T20:41:43.274Z,3.58
2022-09-11T20:44:10.098Z,2.72
2022-09-11T20:46:36.687Z,2.17
2022-09-11T20:49:04.657Z,2.70
2022-09-11T20:51:32.678Z,3.90
2022-09-11T20:54:00.478Z,2.97
2022-09-11T20:56:28.149Z,4.47
2022-09-11T20:58:54.732Z,2.65
2022-09-11T21:01:23.445Z,2.78
2022-09-11T21:03:55.181Z,2.92
2022-09-11T21:06:26.059Z,6.05
2022-09-11T21:08:55.888Z,2.15
2022-09-11T21:11:23.475Z,3.20
2022-09-11T21:13:50.461Z,2.78
2022-09-11T21:16:18.127Z,3.67
2022-09-11T21:18:47.111Z,2.95
2022-09-11T21:21:14.195Z,3.38
2022-09-11T21:23:40.935Z,3.45
2022-09-11T21:26:08.624Z,4.25
2022-09-11T21:28:35.420Z,2.40
2022-09-11T21:31:02.500Z,3.78
2022-09-11T21:33:29.084Z,3.00
2022-09-11T21:35:55.884Z,2.60
2022-09-11T21:38:24.605Z,2.88
2022-09-11T21:40:52.130Z,6.50
2022-09-11T21:43:18.659Z,5.15
2022-09-11T21:45:45.416Z,2.97
2022-09-11T21:48:12.480Z,3.75
2022-09-11T21:50:39.425Z,4.75
2022-09-11T21:53:06.962Z,4.57
2022-09-11T21:55:42.690Z,5.63
2022-09-11T21:58:19.402Z,4.90
2022-09-11T22:00:51.200Z,4.95
2022-09-11T22:03:19.257Z,4.53
2022-09-11T22:05:49.084Z,5.13
2022-09-11T22:08:18.267Z,7.63
2022-09-11T22:10:50.133Z,5.82
2022-09-11T22:13:18.896Z,4.78
2022-09-11T22:15:48.748Z,5.03
2022-09-11T22:18:16.173Z,4.75
2022-09-11T22:20:43.463Z,3.33
2022-09-11T22:23:22.678Z,5.20
2022-09-11T22:26:02.675Z,6.20
2022-09-11T22:28:29.152Z,4.43
2022-09-11T22:30:55.744Z,4.70
2022-09-11T22:33:22.589Z,5.22
2022-09-11T22:35:49.654Z,4.70
2022-09-11T22:38:16.499Z,3.58
2022-09-11T22:40:43.041Z,4.82
2022-09-11T22:43:09.677Z,5.82
2022-09-11T22:45:36.202Z,5.50
2022-09-11T22:48:02.843Z,4.82
2022-09-11T22:50:29.292Z,6.85
2022-09-11T22:52:56.217Z,6.60
2022-09-11T22:55:22.653Z,5.63
2022-09-11T22:57:49.105Z,8.23
2022-09-11T23:00:15.781Z,5.05
2022-09-11T23:02:42.514Z,5.50
2022-09-11T23:05:27.406Z,4.75
2022-09-11T23:07:54.660Z,5.45
2022-09-11T23:10:21.873Z,7.03
2022-09-11T23:12:48.408Z,6.60
2022-09-11T23:15:14.900Z,9.18
2022-09-11T23:17:41.382Z,7.35
2022-09-11T23:20:08.079Z,6.35
2022-09-11T23:22:34.522Z,6.63
2022-09-11T23:25:01.004Z,6.43
2022-09-11T23:27:27.619Z,5.25
2022-09-11T23:29:54.079Z,6.57
2022-09-11T23:32:20.672Z,9.85
2022-09-11T23:34:47.144Z,10.38
2022-09-11T23:37:13.628Z,7.10
2022-09-11T23:39:40.191Z,5.63
2022-09-11T23:42:06.724Z,7.43
2022-09-11T23:44:33.200Z,7.85
2022-09-11T23:47:01.338Z,8.38
2022-09-11T23:49:32.096Z,7.15
2022-09-11T23:52:00.780Z,8.18
2022-09-11T23:54:27.599Z,7.38
2022-09-11T23:56:54.051Z,5.85
2022-09-11T23:59:20.676Z,9.27
